createdAt,value
2018-09-06T00:01:22.364Z,7.90
2018-09-06T00:03:51.989Z,6.07
2018-09-06T00:06:24.000Z,6.17
2018-09-06T00:08:53.645Z,6.43
2018-09-06T00:11:23.119Z,12.50
2018-09-06T00:13:52.444Z,6.43
2018-09-06T00:16:21.942Z,7.40
2018-09-06T00:18:51.503Z,10.13
2018-09-06T00:21:21.016Z,7.23
2018-09-06T00:23:50.436Z,11.07
2018-09-06T00:26:19.878Z,7.83
2018-09-06T00:28:49.423Z,44.83
2018-09-06T00:31:18.811Z,6.67
2018-09-06T00:33:48.259Z,6.57
2018-09-06T00:36:21.007Z,10.43
2018-09-06T00:38:50.418Z,8.53
2018-09-06T00:41:19.888Z,6.97
2018-09-06T00:43:49.437Z,10.53
2018-09-06T00:46:31.454Z,8.40
2018-09-06T00:49:00.989Z,11.00
2018-09-06T00:51:30.549Z,7.80
2018-09-06T00:53:59.774Z,5.60
2018-09-06T00:56:29.277Z,7.67
2018-09-06T00:59:00.967Z,6.77
2018-09-06T01:01:30.580Z,8.70
2018-09-06T01:03:59.814Z,8.53
2018-09-06T01:06:29.225Z,7.57
2018-09-06T01:08:58.517Z,10.10
2018-09-06T01:11:27.837Z,8.83
2018-09-06T01:13:57.275Z,11.53
2018-09-06T01:16:27.590Z,8.43
2018-09-06T01:18:56.863Z,8.23
2018-09-06T01:21:26.278Z,8.23
2018-09-06T01:23:55.739Z,11.37
2018-09-06T01:26:25.029Z,11.87
2018-09-06T01:28:54.574Z,9.57
2018-09-06T01:31:24.549Z,8.90
2018-09-06T01:33:54.992Z,10.97
2018-09-06T01:36:30.656Z,20.97
2018-09-06T01:38:59.965Z,22.93
2018-09-06T01:41:29.423Z,22.10
2018-09-06T01:43:58.663Z,8.97
2018-09-06T01:46:29.054Z,12.27
2018-09-06T01:48:58.514Z,9.47
2018-09-06T01:51:27.978Z,20.43
2018-09-06T01:53:57.306Z,11.10
2018-09-06T01:56:26.713Z,9.27
2018-09-06T01:58:56.153Z,7.20
2018-09-06T02:01:25.427Z,8.97
2018-09-06T02:03:55.303Z,16.43
2018-09-06T02:06:24.682Z,10.47
2018-09-06T02:08:54.179Z,9.37
2018-09-06T02:11:23.650Z,10.97
2018-09-06T02:13:52.993Z,11.70
2018-09-06T02:16:22.371Z,9.53
2018-09-06T02:18:51.911Z,13.93
2018-09-06T02:21:21.277Z,11.67
2018-09-06T02:23:50.636Z,10.00
2018-09-06T02:26:20.006Z,9.87
2018-09-06T02:28:49.342Z,15.83
2018-09-06T02:31:18.931Z,16.80
2018-09-06T02:33:48.303Z,14.10
2018-09-06T02:36:19.011Z,22.47
2018-09-06T02:38:48.428Z,15.07
2018-09-06T02:41:17.764Z,14.90
2018-09-06T02:43:47.021Z,12.83
2018-09-06T02:46:16.350Z,11.20
2018-09-06T02:48:45.836Z,10.87
2018-09-06T02:51:17.770Z,17.63
2018-09-06T02:53:47.108Z,10.30
2018-09-06T02:56:16.948Z,13.07
2018-09-06T02:58:46.443Z,12.87
2018-09-06T03:01:15.837Z,23.33
2018-09-06T03:03:45.336Z,15.37
2018-09-06T03:06:14.815Z,23.80
2018-09-06T03:08:44.214Z,11.13
2018-09-06T03:11:18.585Z,12.37
2018-09-06T03:13:47.941Z,16.57
2018-09-06T03:16:17.362Z,18.30
2018-09-06T03:18:46.805Z,13.37
2018-09-06T03:21:16.107Z,22.47
2018-09-06T03:23:45.503Z,20.80
2018-09-06T03:26:16.673Z,17.47
2018-09-06T03:28:47.274Z,20.57
2018-09-06T03:31:16.812Z,12.20
2018-09-06T03:33:46.737Z,11.17
2018-09-06T03:36:19.319Z,18.70
2018-09-06T03:38:48.936Z,16.43
2018-09-06T03:41:18.202Z,11.53
2018-09-06T03:43:47.603Z,14.63
2018-09-06T03:46:17.030Z,15.80
2018-09-06T03:48:46.419Z,13.10
2018-09-06T03:51:15.807Z,14.73
2018-09-06T03:53:45.278Z,20.93
2018-09-06T03:56:15.967Z,20.03
2018-09-06T03:58:45.342Z,22.97
2018-09-06T04:01:14.557Z,18.20
2018-09-06T04:03:44.058Z,33.70
2018-09-06T04:06:13.509Z,19.47
2018-09-06T04:08:42.926Z,18.23
2018-09-06T04:11:12.485Z,30.17
2018-09-06T04:13:41.823Z,16.00
2018-09-06T04:16:11.227Z,15.50
2018-09-06T04:18:40.627Z,21.50
2018-09-06T04:21:09.854Z,15.77
2018-09-06T04:23:39.198Z,18.53
2018-09-06T04:26:08.625Z,15.27
2018-09-06T04:28:38.277Z,23.53
2018-09-06T04:31:07.820Z,26.77
2018-09-06T04:33:37.273Z,25.30
2018-09-06T04:36:06.655Z,18.77
2018-09-06T04:38:36.068Z,19.00
2018-09-06T04:41:05.589Z,26.87
2018-09-06T04:43:35.109Z,16.00
2018-09-06T04:46:05.558Z,15.70
2018-09-06T04:48:34.930Z,17.60
2018-09-06T04:51:04.443Z,24.53
2018-09-06T04:53:33.838Z,20.53
2018-09-06T04:56:03.217Z,26.23
2018-09-06T04:58:32.950Z,22.50
2018-09-06T05:01:02.342Z,27.57
2018-09-06T05:03:31.857Z,23.00
2018-09-06T05:06:01.292Z,18.47
2018-09-06T05:08:30.651Z,29.47
2018-09-06T05:11:00.138Z,26.77
2018-09-06T05:13:29.635Z,23.70
2018-09-06T05:15:58.982Z,52.17
2018-09-06T05:18:28.454Z,26.40
2018-09-06T05:20:57.959Z,24.00
2018-09-06T05:23:27.396Z,95.63
2018-09-06T05:25:56.772Z,54.57
2018-09-06T05:28:26.178Z,57.43
2018-09-06T05:30:55.747Z,16.73
2018-09-06T05:33:25.135Z,19.03
2018-09-06T05:35:54.630Z,18.73
2018-09-06T05:38:23.939Z,24.27
2018-09-06T05:40:53.548Z,15.20
2018-09-06T05:43:23.057Z,24.67
2018-09-06T05:45:52.477Z,16.90
2018-09-06T05:48:21.852Z,16.40
2018-09-06T05:50:51.291Z,20.40
2018-09-06T05:53:20.851Z,21.10
2018-09-06T05:55:50.508Z,18.00
2018-09-06T05:58:20.111Z,16.80
2018-09-06T06:00:50.455Z,29.40
2018-09-06T06:03:19.864Z,20.00
2018-09-06T06:05:49.419Z,23.07
2018-09-06T06:08:29.720Z,22.37
2018-09-06T06:10:59.253Z,24.30
2018-09-06T06:13:28.532Z,17.80
2018-09-06T06:15:59.018Z,16.63
2018-09-06T06:18:28.250Z,14.47
2018-09-06T06:20:57.630Z,16.80
2018-09-06T06:23:26.859Z,21.57
2018-09-06T06:25:56.430Z,16.03
2018-09-06T06:28:25.767Z,22.77
2018-09-06T06:30:55.236Z,20.60
2018-09-06T06:33:24.526Z,18.60
2018-09-06T06:36:01.785Z,23.30
2018-09-06T06:38:31.090Z,19.80
2018-09-06T06:41:00.459Z,32.43
2018-09-06T06:43:29.780Z,18.03
2018-09-06T06:46:00.086Z,29.20
2018-09-06T06:48:29.277Z,20.37
2018-09-06T06:50:58.992Z,25.97
2018-09-06T06:53:29.003Z,23.07
2018-09-06T06:55:58.759Z,22.70
2018-09-06T06:58:29.146Z,19.80
2018-09-06T07:00:59.363Z,36.50
2018-09-06T07:03:29.851Z,24.00
2018-09-06T07:06:00.095Z,23.37
2018-09-06T07:08:30.932Z,20.27
2018-09-06T07:11:01.475Z,23.63
2018-09-06T07:13:32.452Z,25.17
2018-09-06T07:16:02.683Z,24.77
2018-09-06T07:18:33.195Z,22.83
2018-09-06T07:21:03.539Z,22.70
2018-09-06T07:23:33.501Z,19.00
2018-09-06T07:26:05.544Z,15.03
2018-09-06T07:28:35.787Z,31.87
2018-09-06T07:31:06.450Z,17.80
2018-09-06T07:33:36.548Z,19.30
2018-09-06T07:36:06.919Z,15.10
2018-09-06T08:48:48.048Z,31.23
2018-09-06T08:54:47.812Z,19.73
2018-09-06T08:57:32.289Z,20.13
2018-09-06T09:00:01.205Z,22.33
2018-09-06T09:02:30.334Z,24.37
2018-09-06T09:04:59.215Z,30.77
2018-09-06T09:07:29.451Z,28.17
2018-09-06T09:09:58.311Z,24.53
2018-09-06T09:12:27.204Z,26.10
2018-09-06T09:14:56.224Z,23.87
2018-09-06T09:17:25.224Z,20.30
2018-09-06T09:19:54.294Z,15.33
2018-09-06T09:22:23.407Z,27.87
2018-09-06T09:24:52.356Z,19.57
2018-09-06T09:27:21.429Z,19.03
2018-09-06T09:29:50.350Z,21.97
2018-09-06T09:32:19.333Z,22.93
2018-09-06T09:34:48.218Z,22.30
2018-09-06T09:37:17.305Z,15.50
2018-09-06T09:39:46.193Z,15.70
2018-09-06T09:42:15.267Z,14.20
2018-09-06T09:44:44.224Z,14.17
2018-09-06T09:49:41.203Z,16.70
2018-09-06T09:52:10.247Z,18.40
2018-09-06T09:54:39.216Z,25.97
2018-09-06T09:57:08.366Z,18.63
2018-09-06T09:59:37.292Z,23.90
2018-09-06T10:02:11.537Z,18.73
2018-09-06T10:04:45.710Z,37.77
2018-09-06T10:07:19.746Z,22.73
2018-09-06T10:09:50.781Z,20.50
2018-09-06T10:12:19.888Z,26.50
2018-09-06T10:14:48.773Z,20.77
2018-09-06T10:17:17.747Z,16.40
2018-09-06T10:19:51.530Z,22.97
2018-09-06T10:22:20.509Z,30.67
2018-09-06T10:24:49.406Z,27.07
2018-09-06T10:27:18.464Z,25.77
2018-09-06T10:29:48.512Z,29.30
2018-09-06T10:32:17.559Z,30.20
2018-09-06T10:34:46.622Z,29.87
2018-09-06T10:37:15.517Z,35.63
2018-09-06T10:39:45.471Z,32.80
2018-09-06T10:42:14.571Z,34.17
2018-09-06T10:44:43.510Z,22.43
2018-09-06T10:47:12.511Z,32.63
2018-09-06T10:49:41.493Z,29.43
2018-09-06T10:52:10.552Z,23.00
2018-09-06T10:54:39.453Z,31.40
2018-09-06T10:57:08.734Z,28.37
2018-09-06T10:59:38.793Z,29.47
2018-09-06T11:02:07.816Z,23.60
2018-09-06T11:04:36.899Z,23.00
2018-09-06T11:07:06.081Z,30.60
2018-09-06T11:09:36.413Z,31.33
2018-09-06T11:12:05.591Z,32.17
2018-09-06T11:14:34.637Z,31.57
2018-09-06T11:17:03.757Z,30.70
2018-09-06T11:19:34.785Z,48.60
2018-09-06T11:22:04.048Z,36.70
2018-09-06T11:24:32.898Z,37.70
2018-09-06T11:27:01.861Z,28.33
2018-09-06T11:29:30.817Z,34.40
2018-09-06T11:32:00.023Z,52.50
2018-09-06T11:34:28.952Z,43.93
2018-09-06T11:36:57.929Z,36.57
2018-09-06T11:39:26.909Z,38.80
2018-09-06T11:41:56.074Z,36.77
2018-09-06T11:44:24.997Z,31.30
2018-09-06T11:46:54.280Z,34.40
2018-09-06T11:49:23.218Z,32.13
2018-09-06T11:51:52.308Z,33.10
2018-09-06T11:54:21.325Z,30.90
2018-09-06T11:56:50.204Z,26.13
2018-09-06T11:59:19.370Z,51.03
2018-09-06T12:01:48.531Z,33.37
2018-09-06T12:04:17.662Z,27.67
2018-09-06T12:06:46.708Z,45.40
2018-09-06T12:09:15.777Z,33.20
2018-09-06T12:11:44.667Z,36.97
2018-09-06T12:14:13.793Z,29.40
2018-09-06T12:16:42.877Z,34.33
2018-09-06T12:19:11.993Z,24.60
2018-09-06T12:21:40.959Z,24.67
2018-09-06T12:24:09.900Z,37.27
2018-09-06T12:26:38.838Z,30.53
2018-09-06T12:29:07.958Z,28.93
2018-09-06T12:31:36.859Z,35.43
2018-09-06T12:34:05.993Z,44.77
2018-09-06T12:36:35.038Z,33.17
2018-09-06T12:39:05.406Z,39.10
2018-09-06T12:41:34.378Z,35.03
2018-09-06T12:44:03.384Z,37.77
2018-09-06T12:46:32.243Z,27.27
2018-09-06T12:49:01.210Z,46.93
2018-09-06T12:51:30.127Z,27.83
2018-09-06T12:53:59.172Z,30.63
2018-09-06T12:56:28.276Z,35.47
2018-09-06T12:58:57.161Z,26.87
2018-09-06T13:01:26.136Z,24.63
2018-09-06T13:03:55.051Z,26.87
2018-09-06T13:06:24.053Z,32.70
2018-09-06T13:08:53.055Z,28.10
2018-09-06T13:11:23.147Z,34.50
2018-09-06T13:13:52.187Z,30.67
2018-09-06T13:16:21.105Z,32.13
2018-09-06T13:18:50.229Z,35.30
2018-09-06T13:21:20.121Z,23.10
2018-09-06T13:23:49.022Z,23.87
2018-09-06T13:26:18.057Z,33.03
2018-09-06T13:28:47.272Z,35.87
2018-09-06T13:31:16.280Z,42.37
2018-09-06T13:33:45.411Z,26.83
2018-09-06T13:36:14.369Z,70.40
2018-09-06T13:38:43.333Z,36.37
2018-09-06T13:41:15.967Z,38.57
2018-09-06T13:43:44.924Z,30.87
2018-09-06T13:46:13.854Z,40.70
2018-09-06T13:48:42.715Z,32.27
2018-09-06T13:51:11.645Z,37.03
2018-09-06T13:53:40.626Z,31.37
2018-09-06T13:56:09.769Z,28.23
2018-09-06T13:58:38.774Z,31.90
2018-09-06T14:01:08.881Z,33.53
2018-09-06T14:03:37.851Z,29.80
2018-09-06T14:06:07.102Z,28.97
2018-09-06T14:08:36.049Z,36.37
2018-09-06T14:11:07.261Z,27.93
2018-09-06T14:13:36.214Z,42.73
2018-09-06T14:16:05.126Z,35.33
2018-09-06T14:18:34.073Z,26.43
2018-09-06T14:21:03.060Z,31.87
2018-09-06T14:23:32.129Z,31.00
2018-09-06T14:26:01.220Z,32.37
2018-09-06T14:28:30.072Z,26.57
2018-09-06T14:30:59.081Z,45.47
2018-09-06T14:33:28.035Z,34.67
2018-09-06T14:35:57.117Z,32.53
2018-09-06T14:38:26.017Z,42.80
2018-09-06T14:40:54.976Z,46.27
2018-09-06T14:43:23.984Z,34.47
2018-09-06T14:45:52.925Z,37.53
2018-09-06T14:48:21.916Z,39.07
2018-09-06T14:50:52.046Z,45.90
2018-09-06T14:53:20.924Z,45.03
2018-09-06T14:55:49.913Z,37.77
2018-09-06T14:58:18.847Z,44.90
2018-09-06T15:00:48.914Z,48.33
2018-09-06T15:03:17.774Z,54.40
2018-09-06T15:05:46.688Z,38.00
2018-09-06T15:08:15.650Z,47.30
2018-09-06T15:10:52.437Z,40.83
2018-09-06T15:13:21.351Z,46.23
2018-09-06T15:15:50.455Z,46.00
2018-09-06T15:18:19.290Z,69.13
2018-09-06T15:20:48.228Z,56.27
2018-09-06T15:23:17.249Z,46.43
2018-09-06T15:25:46.340Z,62.80
2018-09-06T15:28:15.341Z,63.30
2018-09-06T15:30:47.320Z,52.60
2018-09-06T15:33:16.277Z,69.03
2018-09-06T15:35:45.196Z,73.07
2018-09-06T15:38:14.164Z,66.87
2018-09-06T15:40:43.345Z,54.90
2018-09-06T15:43:13.215Z,57.40
2018-09-06T15:45:42.219Z,66.37
2018-09-06T15:48:11.216Z,68.37
2018-09-06T15:50:43.474Z,57.20
2018-09-06T15:53:12.481Z,59.77
2018-09-06T15:55:41.489Z,58.77
2018-09-06T15:58:10.530Z,57.83
2018-09-06T16:00:39.643Z,58.80
2018-09-06T16:03:08.725Z,58.27
2018-09-06T16:05:38.632Z,76.90
2018-09-06T16:08:07.597Z,50.80
2018-09-06T16:10:36.581Z,62.50
2018-09-06T16:13:05.545Z,56.93
2018-09-06T16:15:34.439Z,56.27
2018-09-06T16:18:03.412Z,56.43
2018-09-06T16:20:32.448Z,67.20
2018-09-06T16:23:01.561Z,63.47
2018-09-06T16:25:30.413Z,64.87
2018-09-06T16:27:59.281Z,60.57
2018-09-06T16:30:29.454Z,66.57
2018-09-06T16:32:58.368Z,70.77
2018-09-06T16:35:27.232Z,76.93
2018-09-06T16:37:56.235Z,62.70
2018-09-06T16:40:25.113Z,72.00
2018-09-06T16:42:54.188Z,61.20
2018-09-06T16:45:23.217Z,91.43
2018-09-06T16:47:52.113Z,80.23
2018-09-06T16:50:20.999Z,79.50
2018-09-06T16:52:50.137Z,68.50
2018-09-06T16:55:19.208Z,70.80
2018-09-06T16:57:48.251Z,62.20
2018-09-06T17:00:17.150Z,94.70
2018-09-06T17:02:46.196Z,72.87
2018-09-06T17:05:15.145Z,75.50
2018-09-06T17:07:44.272Z,80.30
2018-09-06T17:10:13.317Z,85.73
2018-09-06T17:12:42.466Z,67.50
2018-09-06T17:15:11.572Z,69.53
2018-09-06T17:17:40.610Z,69.83
2018-09-06T17:20:09.757Z,84.03
2018-09-06T17:22:38.995Z,72.67
2018-09-06T17:25:07.892Z,113.90
2018-09-06T17:27:36.918Z,105.50
2018-09-06T17:30:06.081Z,95.73
2018-09-06T17:32:35.316Z,100.77
2018-09-06T17:35:04.371Z,96.20
2018-09-06T17:37:33.429Z,99.87
2018-09-06T17:40:02.322Z,127.43
2018-09-06T17:42:32.571Z,84.10
2018-09-06T17:45:01.710Z,113.63
2018-09-06T17:47:30.710Z,100.70
2018-09-06T17:49:59.644Z,103.03
2018-09-06T17:52:36.520Z,113.20
2018-09-06T17:55:05.629Z,82.00
2018-09-06T17:57:34.461Z,102.93
2018-09-06T18:00:03.517Z,98.00
2018-09-06T18:02:33.517Z,86.27
2018-09-06T18:05:02.528Z,110.93
2018-09-06T18:07:31.589Z,119.07
2018-09-06T18:10:00.464Z,180.83
2018-09-06T18:12:30.536Z,123.63
2018-09-06T18:14:59.595Z,114.67
2018-09-06T18:17:28.584Z,116.20
2018-09-06T18:19:57.592Z,141.80
2018-09-06T18:22:32.278Z,129.57
2018-09-06T18:25:01.297Z,135.90
2018-09-06T18:27:30.306Z,136.80
2018-09-06T18:29:59.367Z,113.17
2018-09-06T18:32:28.370Z,131.10
2018-09-06T18:34:57.358Z,122.23
2018-09-06T18:37:26.496Z,132.80
2018-09-06T18:39:55.331Z,105.53
2018-09-06T18:42:35.818Z,139.93
2018-09-06T18:45:04.939Z,125.03
2018-09-06T18:47:34.069Z,111.93
2018-09-06T18:50:03.043Z,124.53
2018-09-06T18:52:32.985Z,146.40
2018-09-06T18:55:02.025Z,124.57
2018-09-06T18:57:30.993Z,125.47
2018-09-06T19:00:00.066Z,154.03
2018-09-06T19:02:28.916Z,101.33
2018-09-06T19:04:57.891Z,105.90
2018-09-06T19:07:26.774Z,158.57
2018-09-06T19:09:55.913Z,134.60
2018-09-06T19:12:24.785Z,124.30
2018-09-06T19:14:53.733Z,135.70
2018-09-06T19:17:22.669Z,141.80
2018-09-06T19:19:51.602Z,151.57
2018-09-06T19:22:20.567Z,137.23
2018-09-06T19:24:49.605Z,151.57
2018-09-06T19:27:18.440Z,149.73
2018-09-06T19:29:47.369Z,150.47
2018-09-06T19:32:16.205Z,136.97
2018-09-06T19:34:45.105Z,168.57
2018-09-06T19:37:14.042Z,113.43
2018-09-06T19:39:43.021Z,135.07
2018-09-06T19:42:11.888Z,107.20
2018-09-06T19:44:40.858Z,118.27
2018-09-06T19:47:09.719Z,116.20
2018-09-06T19:49:38.701Z,111.80
2018-09-06T19:52:07.749Z,95.17
2018-09-06T19:54:36.646Z,124.20
2018-09-06T19:57:05.814Z,128.03
2018-09-06T19:59:34.810Z,115.20
2018-09-06T20:02:04.878Z,121.60
2018-09-06T20:04:33.855Z,106.93
2018-09-06T20:07:02.777Z,116.13
2018-09-06T20:09:31.865Z,96.80
2018-09-06T20:12:00.761Z,111.70
2018-09-06T20:14:29.773Z,107.57
2018-09-06T20:16:58.615Z,126.27
2018-09-06T20:19:27.525Z,103.33
2018-09-06T20:21:56.425Z,87.57
2018-09-06T20:24:25.337Z,87.23
2018-09-06T20:26:54.365Z,85.23
2018-09-06T20:29:23.237Z,97.97
2018-09-06T20:31:52.165Z,84.60
2018-09-06T20:34:21.141Z,80.53
2018-09-06T20:36:49.966Z,69.30
2018-09-06T20:39:18.862Z,56.63
2018-09-06T20:41:47.735Z,57.03
2018-09-06T20:44:16.592Z,46.87
2018-09-06T20:46:45.557Z,50.90
2018-09-06T20:49:14.565Z,45.63
2018-09-06T20:51:43.459Z,41.97
2018-09-06T20:54:12.610Z,40.67
2018-09-06T20:56:41.515Z,39.40
2018-09-06T20:59:10.616Z,33.13
2018-09-06T21:01:39.618Z,52.43
2018-09-06T21:04:08.589Z,35.40
2018-09-06T21:06:37.505Z,35.87
2018-09-06T21:09:08.009Z,39.13
2018-09-06T21:11:36.890Z,30.30
2018-09-06T21:14:06.167Z,28.80
2018-09-06T21:16:35.064Z,31.13
2018-09-06T21:19:04.118Z,29.70
2018-09-06T21:21:33.090Z,40.13
2018-09-06T21:24:02.119Z,34.30
2018-09-06T21:26:31.152Z,28.87
2018-09-06T21:29:00.126Z,32.73
2018-09-06T21:31:29.077Z,23.70
2018-09-06T21:33:57.882Z,24.13
2018-09-06T21:36:26.853Z,24.60
2018-09-06T21:38:55.709Z,24.93
2018-09-06T21:41:24.630Z,25.33
2018-09-06T21:43:53.551Z,22.33
2018-09-06T21:46:22.484Z,21.00
2018-09-06T21:48:51.510Z,21.70
2018-09-06T21:51:20.445Z,17.70
2018-09-06T21:53:49.371Z,19.37
2018-09-06T21:56:18.285Z,18.67
2018-09-06T21:58:47.310Z,25.23
2018-09-06T22:01:16.323Z,16.23
2018-09-06T22:03:50.350Z,19.13
2018-09-06T22:06:19.263Z,14.40
2018-09-06T22:08:50.974Z,18.13
2018-09-06T22:11:20.480Z,19.07
2018-09-06T22:13:49.616Z,15.80
2018-09-06T22:16:18.570Z,16.73
2018-09-06T22:18:47.487Z,16.70
2018-09-06T22:21:16.491Z,23.80
2018-09-06T22:23:45.451Z,23.90
2018-09-06T22:26:14.423Z,13.53
2018-09-06T22:28:43.286Z,20.57
2018-09-06T22:31:12.249Z,21.10
2018-09-06T22:33:41.284Z,13.80
2018-09-06T22:36:10.137Z,12.10
2018-09-06T22:38:39.005Z,14.13
2018-09-06T22:41:07.852Z,13.90
2018-09-06T22:43:36.793Z,37.73
2018-09-06T22:46:05.765Z,13.20
2018-09-06T22:48:34.737Z,12.43
2018-09-06T22:51:04.113Z,14.17
2018-09-06T22:53:34.128Z,12.30
2018-09-06T22:56:03.585Z,15.23
2018-09-06T22:58:32.550Z,13.13
2018-09-06T23:01:01.525Z,15.40
2018-09-06T23:03:35.628Z,10.80
2018-09-06T23:06:04.542Z,14.40
2018-09-06T23:08:33.518Z,11.13
2018-09-06T23:11:02.412Z,16.03
2018-09-06T23:13:31.539Z,14.10
2018-09-06T23:16:00.493Z,11.93
2018-09-06T23:18:29.454Z,12.40
2018-09-06T23:20:58.412Z,13.37
2018-09-06T23:23:27.223Z,12.90
2018-09-06T23:25:56.170Z,17.03
2018-09-06T23:28:25.133Z,14.97
2018-09-06T23:30:54.156Z,14.33
2018-09-06T23:33:23.130Z,13.67
2018-09-06T23:35:52.365Z,13.93
2018-09-06T23:38:21.189Z,12.77
2018-09-06T23:40:54.116Z,12.00
2018-09-06T23:43:24.105Z,11.93
2018-09-06T23:45:55.190Z,12.20
2018-09-06T23:48:26.251Z,14.03
2018-09-06T23:50:56.256Z,14.80
2018-09-06T23:53:26.011Z,18.20
2018-09-06T23:55:55.342Z,15.03
2018-09-06T23:58:24.288Z,16.10
